Weather reports worldwide

Advertisment
Siracusa, Italy (16464): temperature & dewpoint: 20.09.2018 17:00:00 - 26.09.2018 17:00:00 (CEST)Siracusa, Italy (16464): wind speed: 20.09.2018 17:00:00 - 26.09.2018 17:00:00 (CEST)Siracusa, Italy (16464): wind direction: 20.09.2018 17:00:00 - 26.09.2018 17:00:00 (CEST)Siracusa, Italy (16464): reduced air pressure: 20.09.2018 17:00:00 - 26.09.2018 17:00:00 (CEST)Siracusa, Italy (16464): precipitation: 20.09.2018 17:00:00 - 26.09.2018 17:00:00 (CEST)
Date & Time tt [°C] td [°C] ff [km/h] ff [kn] dd ppp [hPa] rr [mm]
26.09.2018 17:00:00 21,9 11,3 13 7 SSW 1023,5 -
26.09.2018 16:00:00 21,5 12,6 15 8 NW 1023,8 -
26.09.2018 15:00:00 21,2 12,3 11 6 NW 1024,2 -
26.09.2018 14:00:00 20,7 12,4 15 8 S 1024,8 0,0
26.09.2018 13:00:00 21,1 12,7 15 8 E 1024,9 -
26.09.2018 12:00:00 21,2 12,6 18 10 SE 1025,2 -
26.09.2018 11:00:00 21,4 13,2 16 9 ESE 1024,7 -
26.09.2018 10:00:00 21,6 13,4 24 13 ESE 1024,2 -
26.09.2018 09:00:00 21,9 14,2 22 12 ESE 1023,5 -
26.09.2018 08:00:00 22,0 14,3 16 9 ESE 1023,3 -
26.09.2018 07:00:00 21,9 14,0 24 13 SE 1022,9 -
26.09.2018 06:00:00 22,3 14,1 16 9 ESE 1022,8 -
26.09.2018 05:00:00 22,3 14,3 15 8 SSE 1022,9 -
26.09.2018 04:00:00 21,8 15,3 15 8 SE 1023,1 -
26.09.2018 03:00:00 22,0 15,3 11 6 SW 1023,1 -
26.09.2018 02:00:00 22,6 15,4 13 7 NE 1023,2 -
26.09.2018 01:00:00 22,0 15,5 8 4 N 1023,1 -
26.09.2018 00:00:00 22,2 15,5 13 7 N 1023,3 -
25.09.2018 23:00:00 23,7 15,9 13 7 ESE 1023,0 -
25.09.2018 22:00:00 23,8 16,3 9 5 WSW 1022,8 -
25.09.2018 21:00:00 23,8 16,0 9 5 NE 1022,6 -
25.09.2018 20:00:00 23,8 15,7 15 8 WNW 1022,0 0,0
25.09.2018 19:00:00 23,9 16,6 11 6 E 1021,5 -
25.09.2018 18:00:00 24,1 15,8 16 9 SSE 1021,2 -
25.09.2018 17:00:00 24,7 16,1 16 9 SSE 1020,9 -
25.09.2018 16:00:00 25,0 16,1 15 8 N 1021,3 -
25.09.2018 15:00:00 24,9 16,3 15 8 ESE 1021,6 -
25.09.2018 14:00:00 24,9 16,0 15 8 SE 1022,0 0,0
25.09.2018 13:00:00 - 16,9 15 8 ESE 1022,3 -
25.09.2018 12:00:00 24,0 17,7 15 8 NE 1021,8 -
25.09.2018 11:00:00 24,8 18,9 18 10 S 1021,0 -
25.09.2018 10:00:00 24,7 19,9 22 12 SSE 1020,3 -
25.09.2018 09:00:00 24,3 19,7 24 13 SE 1019,6 -
25.09.2018 08:00:00 24,3 19,7 26 14 E 1019,0 0,0
25.09.2018 07:00:00 24,9 20,1 24 13 E 1018,1 -
25.09.2018 06:00:00 25,5 20,9 15 8 SSE 1017,6 -
25.09.2018 05:00:00 24,7 21,2 8 4 E 1016,8 -
25.09.2018 04:00:00 25,4 21,0 8 4 E 1016,6 -
25.09.2018 03:00:00 26,0 21,2 9 5 S 1016,7 -
25.09.2018 02:00:00 26,2 20,9 9 5 WNW 1016,9 0,0
25.09.2018 01:00:00 26,4 20,9 11 6 S 1016,6 -
25.09.2018 00:00:00 26,7 20,9 9 5 NW 1016,3 -
24.09.2018 23:00:00 26,8 21,0 13 7 SSW 1016,3 -
24.09.2018 22:00:00 26,9 21,4 9 5 W 1016,0 -
24.09.2018 21:00:00 27,2 21,7 8 4 W 1015,5 -
24.09.2018 20:00:00 27,6 20,6 9 5 WSW 1014,7 0,0
24.09.2018 19:00:00 29,2 21,6 8 4 NW 1014,2 -
24.09.2018 18:00:00 29,9 20,1 4 2 NNE 1013,6 -
24.09.2018 17:00:00 30,0 19,3 8 4 NNE 1013,7 -
24.09.2018 16:00:00 29,2 23,1 9 5 WNW 1014,1 -
24.09.2018 15:00:00 28,8 21,5 13 7 SW 1014,6 -
24.09.2018 14:00:00 28,7 20,1 11 6 W 1015,2 0,0
24.09.2018 13:00:00 28,6 18,9 11 6 SE 1015,8 -
24.09.2018 12:00:00 29,0 16,8 9 5 SSE 1016,4 -
24.09.2018 11:00:00 29,2 18,9 4 2 ENE 1016,7 -
24.09.2018 10:00:00 26,4 19,5 4 2 NW 1016,7 -
24.09.2018 09:00:00 23,1 18,1 4 2 NE 1016,6 -
24.09.2018 08:00:00 19,9 15,9 4 2 NE 1016,7 0,0
24.09.2018 07:00:00 19,1 14,9 2 1 NNE 1016,9 -
24.09.2018 06:00:00 19,9 15,0 2 1 NNE 1017,1 -
24.09.2018 05:00:00 20,5 15,6 5 3 E 1017,2 -
24.09.2018 04:00:00 21,2 16,1 8 4 SE 1017,5 -
24.09.2018 03:00:00 21,2 16,7 8 4 SW 1017,9 -
24.09.2018 02:00:00 21,9 17,6 2 1 W 1018,5 0,0
24.09.2018 01:00:00 22,9 18,6 2 1 WSW 1018,8 -
24.09.2018 00:00:00 24,0 19,2 5 3 SSW 1019,2 -
23.09.2018 23:00:00 24,0 20,1 2 1 WSW 1019,3 -
23.09.2018 22:00:00 24,9 20,3 2 1 SSE 1019,3 -
23.09.2018 21:00:00 25,1 20,3 5 3 SW 1019,1 -
23.09.2018 20:00:00 27,3 21,5 11 6 SW 1018,7 0,0
23.09.2018 19:00:00 27,4 22,1 11 6 SE 1018,9 -
23.09.2018 18:00:00 28,0 21,2 13 7 WNW 1019,1 -
23.09.2018 17:00:00 27,9 22,3 13 7 SE 1019,4 -
23.09.2018 16:00:00 28,0 23,1 11 6 ENE 1019,6 -
23.09.2018 15:00:00 27,9 22,6 8 4 SSW 1020,0 -
23.09.2018 14:00:00 27,1 22,0 8 4 NNW 1020,6 0,0
23.09.2018 13:00:00 27,1 22,2 9 5 E 1020,8 -
23.09.2018 12:00:00 27,6 22,5 8 4 E 1021,0 -
23.09.2018 11:00:00 27,5 22,6 5 3 NE 1020,7 -
23.09.2018 10:00:00 26,7 22,5 2 1 ENE 1020,4 -
23.09.2018 09:00:00 23,6 21,8 2 1 S 1020,1 -
23.09.2018 08:00:00 20,7 18,8 2 1 SSE 1019,4 0,0
23.09.2018 07:00:00 20,4 18,3 2 1 SSW 1019,2 -
23.09.2018 06:00:00 20,3 17,8 4 2 SSW 1019,0 -
23.09.2018 05:00:00 20,5 18,0 2 1 S 1019,0 -
23.09.2018 04:00:00 20,9 18,2 2 1 SSW 1019,0 -
23.09.2018 03:00:00 21,2 18,3 2 1 S 1019,1 -
23.09.2018 02:00:00 21,6 18,5 2 1 SSW 1019,4 0,0
23.09.2018 01:00:00 22,0 18,5 4 2 S 1019,3 -
23.09.2018 00:00:00 22,7 19,0 2 1 S 1019,1 -
22.09.2018 23:00:00 23,3 19,2 0 0 N 1019,1 -
22.09.2018 22:00:00 23,9 19,8 2 1 S 1018,7 -
22.09.2018 21:00:00 24,5 20,6 4 2 SSE 1018,4 -
22.09.2018 20:00:00 26,1 21,0 4 2 SE 1017,4 -
22.09.2018 19:00:00 27,3 22,0 5 3 E 1017,0 -
22.09.2018 18:00:00 27,6 22,0 11 6 SW 1016,6 -
22.09.2018 17:00:00 27,5 22,6 8 4 N 1016,9 -
22.09.2018 16:00:00 26,7 22,7 9 5 SE 1017,0 -
22.09.2018 15:00:00 25,0 23,2 0 0 N 1017,6 -
22.09.2018 14:00:00 22,9 20,9 5 3 S 1018,0 -
22.09.2018 13:00:00 27,1 22,0 24 13 SSE 1017,6 -
22.09.2018 12:00:00 27,0 22,6 18 10 SSE 1017,6 -
22.09.2018 11:00:00 26,9 21,8 8 4 N 1017,9 -
22.09.2018 10:00:00 25,9 21,1 4 2 NE 1017,8 -
22.09.2018 09:00:00 23,8 21,4 2 1 WSW 1017,3 -
22.09.2018 08:00:00 20,2 17,7 0 0 N 1016,9 0,0
22.09.2018 07:00:00 19,9 17,2 4 2 SSW 1016,5 -
22.09.2018 06:00:00 19,6 16,8 8 4 SSW 1016,4 -
22.09.2018 05:00:00 20,0 17,3 8 4 SSW 1016,6 -
22.09.2018 04:00:00 20,0 17,5 5 3 SW 1016,4 -
22.09.2018 03:00:00 20,4 17,7 4 2 SW 1016,7 -
22.09.2018 02:00:00 21,1 18,6 4 2 SW 1016,8 0,0
22.09.2018 01:00:00 21,6 19,3 5 3 W 1016,8 -
22.09.2018 00:00:00 21,9 19,6 4 2 WNW 1016,9 -
21.09.2018 23:00:00 22,6 19,7 5 3 WNW 1016,9 -
21.09.2018 22:00:00 23,6 19,7 8 4 NNW 1016,5 -
21.09.2018 21:00:00 25,4 20,6 9 5 W 1016,1 -
21.09.2018 20:00:00 25,6 21,4 13 7 WSW 1015,7 0,0
21.09.2018 19:00:00 25,8 21,0 13 7 WSW 1015,4 -
21.09.2018 18:00:00 26,3 20,8 11 6 ENE 1015,0 -
21.09.2018 17:00:00 26,4 20,4 9 5 W 1015,2 -
21.09.2018 16:00:00 26,9 21,4 15 8 W 1015,5 -
21.09.2018 15:00:00 26,7 20,9 16 9 S 1015,6 -
21.09.2018 14:00:00 27,0 19,5 15 8 SSE 1016,3 0,0
21.09.2018 13:00:00 25,9 18,8 18 10 S 1016,6 -
21.09.2018 12:00:00 27,0 21,7 9 5 NE 1016,4 -
21.09.2018 11:00:00 26,6 21,3 4 2 SSE 1016,5 -
21.09.2018 10:00:00 25,3 20,9 4 2 S 1016,3 -
21.09.2018 09:00:00 23,2 21,6 4 2 W 1016,0 -
21.09.2018 08:00:00 19,9 18,1 4 2 NW 1015,9 0,0
21.09.2018 07:00:00 19,3 17,4 2 1 WNW 1015,4 -
21.09.2018 06:00:00 19,3 17,2 4 2 WNW 1015,5 -
21.09.2018 05:00:00 19,8 17,7 2 1 WNW 1015,5 -
21.09.2018 04:00:00 19,8 17,7 4 2 NW 1015,4 -
21.09.2018 03:00:00 20,3 18,2 4 2 WNW 1015,7 -
21.09.2018 02:00:00 20,7 18,6 2 1 NW 1016,2 0,0
21.09.2018 01:00:00 21,1 18,8 2 1 W 1016,6 -
21.09.2018 00:00:00 21,6 18,9 4 2 WNW 1016,5 -
20.09.2018 23:00:00 21,7 18,8 4 2 WNW 1016,6 -
20.09.2018 22:00:00 22,8 18,7 2 1 WNW 1016,5 -
20.09.2018 21:00:00 23,1 18,4 4 2 WNW 1016,7 -
20.09.2018 20:00:00 25,0 18,1 4 2 N 1016,1 -
20.09.2018 19:00:00 25,4 19,2 0 0 N 1015,9 -
20.09.2018 18:00:00 24,7 20,1 4 2 NW 1015,9 -
20.09.2018 17:00:00 24,1 19,1 5 3 N 1016,0 -

tt = temperature
td = dewpoint
ff = wind speed
dd = wind direction
ppp = reduced air pressure
rr = precipitation

Next stations